Date,TemperatureHighF,TemperatureAvgF,TemperatureLowF,DewpointHighF,DewpointAvgF,DewpointLowF,HumidityHigh,HumidityAvg,HumidityLow,PressureMaxIn,PressureMinIn,WindSpeedMaxMPH,WindSpeedAvgMPH,GustSpeedMaxMPH,PrecipitationSumIn
2013-1-1,50.6,46.6,41.8,45.9,38.8,32.3,98,75,52,30.20,30.14,7,2,14,0.00
2013-1-2,56.5,47.8,41.1,48.3,36.7,32.7,83,66,47,30.17,30.07,4,1,11,0.00
2013-1-3,54.2,46.5,42.0,46.9,37.5,32.0,93,71,59,30.20,30.09,6,2,8,0.00
2013-1-4,55.9,48.0,44.2,45.3,38.6,35.8,83,70,55,30.21,30.11,5,2,8,0.00
2013-1-5,58.3,47.8,44.4,57.7,43.4,39.2,99,85,74,30.18,29.99,7,1,12,0.35
2013-1-6,54.7,47.3,43.7,50.9,44.5,42.6,97,90,73,30.12,29.98,4,1,12,0.14
2013-1-7,61.1,48.8,44.0,52.0,45.4,42.1,98,88,72,30.19,30.09,5,0,7,0.01
2013-1-8,59.9,50.8,45.8,53.9,46.6,43.6,97,86,70,30.17,30.06,4,1,6,0.00
2013-1-9,54.3,48.4,44.4,52.0,44.1,36.6,97,85,71,30.08,29.92,5,1,11,0.01
2013-1-10,54.6,45.0,41.6,42.2,35.8,30.4,86,71,52,30.12,30.01,7,1,10,0.00
2013-1-11,53.4,45.0,42.2,44.2,34.8,27.1,87,68,52,30.19,30.05,5,1,15,0.00
2013-1-12,54.3,43.8,38.6,46.2,34.6,26.1,92,71,43,30.17,30.07,5,0,6,0.00
2013-1-13,55.2,43.3,38.4,45.0,31.4,21.8,88,64,35,30.19,30.11,4,1,9,0.00
2013-1-14,56.7,45.0,38.8,44.5,23.7,18.1,69,43,34,30.33,30.15,7,2,11,0.00
2013-1-15,53.5,44.5,39.7,47.4,34.2,29.6,91,68,43,30.40,30.31,8,1,8,0.00
2013-1-16,54.9,45.0,39.7,43.5,35.1,31.6,86,69,50,30.36,30.18,7,2,10,0.00
2013-1-17,59.6,49.2,42.1,45.9,37.0,33.0,92,64,46,30.19,30.08,6,2,9,0.00
2013-1-18,62.3,52.0,46.7,44.4,36.8,29.9,82,57,38,30.15,30.06,6,2,11,0.00
2013-1-19,59.5,53.6,48.5,42.9,33.1,28.5,62,46,36,30.17,30.08,6,2,10,0.00
2013-1-20,62.5,54.1,48.5,43.5,32.4,28.5,70,44,36,30.15,30.06,5,2,7,0.00
2013-1-21,60.9,51.8,44.5,44.3,36.8,32.4,81,57,45,30.10,30.01,6,3,15,0.00
2013-1-22,60.4,52.2,48.2,46.4,40.6,37.9,77,65,52,30.03,29.93,9,2,10,0.00
2013-1-23,63.8,53.5,49.0,54.2,44.5,39.9,98,73,49,30.01,29.88,5,2,12,0.24
2013-1-24,62.0,52.6,48.6,57.6,50.1,47.5,97,91,77,30.12,29.99,4,1,9,0.01
2013-1-25,65.0,56.5,52.5,57.1,52.6,50.5,96,87,72,30.12,29.97,4,0,5,0.00
2013-1-26,59.6,53.2,46.4,54.6,47.1,36.7,95,80,45,30.01,29.92,7,1,11,0.00
2013-1-27,56.1,48.1,42.7,41.3,37.9,34.5,85,68,54,30.11,30.00,5,1,14,0.00
2013-1-28,59.8,49.3,44.6,46.9,39.6,36.1,85,70,52,30.21,30.08,4,0,8,0.00
2013-1-29,58.6,50.5,45.4,47.4,42.2,38.9,86,73,57,30.28,30.19,8,0,10,0.00
2013-1-30,65.9,54.6,48.8,49.4,45.0,41.1,85,71,49,30.27,30.18,5,1,6,0.00
2013-1-31,60.9,52.5,46.7,47.9,45.2,42.7,87,77,61,30.22,30.10,5,1,8,0.00
2013-2-1,62.3,54.0,49.7,48.3,45.6,43.4,87,74,58,30.14,30.05,6,1,7,0.00
2013-2-2,58.5,50.3,47.3,54.3,47.6,45.4,99,91,74,30.22,30.14,4,1,15,0.00
2013-2-3,57.8,50.7,46.6,55.3,45.9,41.7,98,84,63,30.18,30.07,6,0,8,0.00
2013-2-4,53.3,47.7,45.1,53.0,46.0,44.0,99,94,84,30.10,30.00,4,0,6,0.01
2013-2-5,56.6,48.3,44.3,49.6,44.5,39.5,96,87,68,30.08,30.00,6,1,8,0.00
2013-2-6,59.2,48.3,44.3,48.1,43.3,39.9,93,83,62,30.13,30.05,5,1,7,0.00
2013-2-7,53.3,47.6,43.1,50.2,44.6,40.2,97,89,70,30.10,29.92,13,2,13,0.19
2013-2-8,52.8,45.6,39.7,46.0,39.8,28.0,98,82,45,29.95,29.87,7,1,11,0.09
2013-2-9,58.7,49.6,45.7,41.9,30.8,26.0,67,48,31,30.01,29.92,5,1,9,0.00
2013-2-10,60.3,48.7,42.7,44.2,39.7,29.6,91,73,39,30.04,29.95,4,0,6,0.00
2013-2-11,63.6,52.6,46.7,46.5,35.5,27.6,94,54,30,30.15,30.00,6,1,10,0.00
2013-2-12,59.7,49.6,44.8,54.1,44.1,38.6,98,83,47,30.29,30.15,5,1,9,0.00
2013-2-13,62.0,50.0,44.6,52.4,44.2,39.9,98,81,57,30.27,30.14,6,0,9,0.00
2013-2-14,67.2,54.0,45.8,56.9,46.2,44.1,98,78,46,30.17,30.09,3,0,4,0.01
2013-2-15,68.1,59.6,53.8,46.5,43.2,38.5,69,55,38,30.19,30.13,6,1,10,0.00
2013-2-16,67.1,57.7,50.8,50.9,45.2,41.8,79,63,49,30.15,29.97,5,1,11,0.00
2013-2-17,62.5,51.5,45.7,52.4,44.6,37.9,98,78,52,29.98,29.89,7,0,7,0.00
2013-2-18,52.8,46.9,44.2,44.8,42.1,38.1,94,84,66,29.96,29.89,7,2,12,0.00
2013-2-19,47.1,44.2,39.7,45.2,39.6,33.3,95,84,71,29.90,29.68,6,1,12,0.32
2013-2-20,59.6,46.2,38.8,42.9,36.5,32.1,81,70,46,29.99,29.77,5,0,9,0.00
2013-2-21,59.9,49.0,42.2,41.5,38.3,33.4,87,68,38,30.09,29.98,5,1,11,0.00
2013-2-22,59.6,50.3,44.9,48.3,42.8,39.0,93,76,56,30.18,30.09,6,1,10,0.00
2013-2-23,60.1,50.8,45.5,46.8,40.1,28.9,94,69,40,30.18,30.09,6,1,14,0.01
2013-2-24,62.3,51.3,46.5,49.8,30.0,23.8,90,45,26,30.17,30.09,7,2,12,0.00
2013-2-25,61.6,50.7,44.6,48.5,44.2,39.9,95,80,53,30.19,30.10,6,1,9,0.00
2013-2-26,66.2,51.8,43.1,51.8,37.4,26.2,80,60,22,30.14,30.07,6,1,12,0.00
2013-2-27,65.3,53.9,47.9,51.9,42.7,35.4,85,66,44,30.28,30.13,5,0,7,0.00
2013-2-28,66.2,58.0,48.5,54.4,46.7,39.2,97,68,48,30.37,30.19,7,1,9,0.00
2013-3-1,70.4,57.0,50.5,60.0,50.5,48.1,100,81,47,30.36,30.16,6,0,6,0.00
2013-3-2,68.4,57.6,49.6,55.4,50.0,47.7,94,76,57,30.17,30.00,7,1,13,0.00
2013-3-3,65.0,50.4,45.9,52.5,47.4,44.3,96,90,60,30.02,29.96,7,3,14,0.00
2013-3-4,54.2,46.9,43.5,48.1,44.2,40.8,98,90,76,30.08,29.99,6,2,14,0.00
2013-3-5,53.3,46.8,43.2,46.6,42.5,40.5,94,85,72,30.00,29.75,22,4,28,0.09
2013-3-6,54.1,49.5,46.0,48.9,45.8,43.5,96,88,71,29.99,29.75,16,4,43,0.04
2013-3-7,54.9,47.4,44.9,46.6,44.0,41.4,96,88,66,29.92,29.79,6,1,8,0.02
2013-3-8,62.5,50.1,45.8,48.2,42.4,36.5,85,75,55,29.97,29.77,5,1,9,0.00
2013-3-9,66.7,52.5,45.2,53.3,43.2,40.8,98,72,45,30.23,29.97,7,0,7,0.00
2013-3-10,68.4,55.9,48.5,50.2,44.0,37.1,81,65,40,30.27,30.17,6,1,9,0.00
2013-3-11,71.2,56.0,46.9,53.7,45.4,40.7,96,70,36,30.18,30.03,8,1,9,0.00
2013-3-12,72.8,56.2,46.9,55.1,49.6,45.5,97,81,46,30.08,30.00,3,0,4,0.00
2013-3-13,75.4,61.8,48.2,56.1,51.3,46.6,96,71,45,30.08,29.99,5,1,7,0.01
2013-3-14,66.1,57.0,49.6,54.3,49.8,44.6,95,77,61,30.09,30.00,7,0,7,0.00
2013-3-15,69.3,56.8,48.3,53.7,48.4,43.8,91,75,50,30.06,29.97,4,0,5,0.00
2013-3-16,71.5,56.8,46.9,54.0,47.4,38.6,98,74,39,30.04,29.95,5,1,9,0.00
2013-3-17,65.2,56.2,48.8,48.5,44.2,38.7,79,65,45,30.07,29.97,5,1,11,0.00
2013-3-18,65.5,52.8,46.4,51.6,45.5,41.4,97,77,55,30.04,29.96,6,1,12,0.00
2013-3-19,62.6,52.2,47.4,50.2,45.5,40.9,91,78,59,30.06,29.99,5,0,11,0.07
2013-3-20,55.2,50.4,47.4,54.6,48.1,43.6,99,92,77,30.07,29.99,8,1,15,0.40
2013-3-21,61.6,51.8,43.6,51.7,45.6,40.2,98,80,57,30.07,29.95,5,1,8,0.01
2013-3-22,67.5,56.3,45.8,48.1,37.1,25.5,80,54,21,30.05,29.95,6,1,10,0.00
2013-3-23,66.5,54.7,49.2,41.6,36.0,25.3,65,51,21,30.07,30.01,4,0,6,0.00
2013-3-24,67.6,52.3,46.1,50.4,44.8,40.5,90,76,47,30.02,29.90,7,1,11,0.00
2013-3-25,56.3,48.7,45.1,52.8,44.5,42.5,98,86,72,29.95,29.87,7,1,14,0.00
2013-3-26,58.3,50.8,45.5,50.0,45.6,42.7,92,83,72,29.93,29.87,7,2,11,0.00
2013-3-27,56.0,51.1,48.8,52.5,48.7,43.5,98,92,78,29.94,29.88,5,1,8,0.03
2013-3-28,62.7,53.7,51.4,58.9,52.2,50.8,99,95,79,30.01,29.93,6,1,11,0.02
2013-3-29,74.3,56.3,50.4,57.6,51.5,46.5,97,85,54,30.02,29.94,9,1,10,0.00
2013-3-30,64.3,53.5,50.5,55.4,50.9,49.1,98,91,67,30.01,29.91,7,2,23,0.12
2013-3-31,59.3,54.2,52.2,56.4,53.0,51.4,98,96,85,30.00,29.92,13,4,24,0.15
2013-4-1,61.8,54.6,51.4,56.8,52.2,47.5,99,92,70,30.08,29.98,7,2,16,0.31
2013-4-2,64.5,53.3,48.9,56.0,50.0,46.7,94,89,73,30.12,30.02,6,1,8,0.00
2013-4-3,72.8,53.8,47.3,54.7,49.6,46.5,99,88,47,30.07,29.92,10,1,13,0.00
2013-4-4,55.9,51.6,47.8,55.1,51.1,47.0,99,98,97,30.06,29.92,27,5,29,0.42
2013-4-5,58.5,53.7,51.4,57.3,52.9,50.4,100,97,85,30.13,30.05,6,1,9,0.02
2013-4-6,55.9,52.6,50.8,55.6,52.0,49.5,99,98,94,30.13,30.07,8,2,14,0.07
2013-4-7,60.1,53.0,50.4,56.4,51.0,47.4,99,93,77,30.10,29.77,9,2,18,0.10
2013-4-8,67.4,53.5,45.9,49.1,41.1,36.7,95,66,36,29.95,29.72,7,3,24,0.00
2013-4-9,75.9,61.5,53.9,46.6,38.2,33.8,53,43,28,30.03,29.95,6,1,13,0.00
2013-4-10,83.2,69.0,60.2,57.0,46.4,38.0,71,45,35,30.10,29.96,4,0,8,0.00
2013-4-11,71.6,59.5,50.3,54.2,48.3,42.2,86,67,49,29.98,29.77,6,1,8,0.00
2013-4-12,68.2,56.6,48.1,56.5,48.1,41.3,95,75,38,29.85,29.76,5,1,7,0.00
2013-4-13,68.8,55.5,48.2,53.3,47.8,43.8,95,77,50,29.83,29.75,7,1,9,0.00
2013-4-14,70.4,54.2,46.6,48.0,42.8,39.7,94,67,42,29.86,29.79,7,1,12,0.00
2013-4-15,62.8,49.1,44.4,45.2,41.6,35.0,96,78,46,29.89,29.79,8,2,16,0.00
2013-4-16,67.6,53.1,45.5,44.4,34.9,30.3,68,52,27,30.08,29.89,6,1,8,0.00
2013-4-17,69.3,58.5,52.0,50.3,33.0,30.2,62,38,26,30.20,30.09,8,1,13,0.00
2013-4-18,73.5,60.9,55.0,48.3,37.3,30.2,61,42,26,30.20,30.11,6,1,10,0.00
2013-4-19,70.0,55.7,50.0,53.6,46.5,42.8,88,72,48,30.16,30.00,6,0,9,0.00
2013-4-20,76.2,62.2,54.3,55.7,46.0,37.2,77,57,30,30.03,29.91,6,1,10,0.00
2013-4-21,83.5,62.2,52.6,55.4,46.5,35.9,80,60,26,29.97,29.85,4,1,10,0.00
2013-4-22,85.6,68.0,60.8,57.1,46.4,42.3,63,47,22,29.89,29.77,6,1,10,0.00
2013-4-23,77.8,61.4,46.5,48.8,40.5,27.4,94,52,17,29.87,29.79,13,3,17,0.00
2013-4-24,55.4,49.7,46.1,54.1,47.0,44.5,98,90,79,29.88,29.77,9,2,16,0.00
2013-4-25,59.8,52.7,49.4,51.9,49.2,46.6,94,88,75,30.06,29.87,7,3,20,0.00
2013-4-26,60.2,52.3,47.4,51.9,48.1,45.6,97,86,73,30.17,30.06,7,1,13,0.00
2013-4-27,67.5,51.2,46.1,53.5,47.5,45.0,97,88,60,30.16,30.00,6,1,10,0.01
2013-4-28,79.0,58.3,47.8,57.6,50.3,46.1,95,78,47,30.01,29.81,3,0,9,0.00
2013-4-29,83.1,68.3,60.6,57.8,52.7,48.7,73,59,32,29.83,29.69,5,0,7,0.00
2013-4-30,76.1,63.1,52.9,54.3,48.5,22.6,87,63,17,29.78,29.71,5,0,8,0.00
2013-5-1,79.5,69.4,59.3,50.3,33.5,20.8,61,28,16,30.00,29.78,6,2,17,0.00
2013-5-2,89.2,70.5,60.0,46.7,37.2,25.8,48,32,12,30.08,30.00,5,1,9,0.00
2013-5-3,85.5,70.3,60.4,51.7,36.3,28.0,63,30,18,30.00,29.72,5,0,10,0.00
2013-5-4,77.4,59.7,52.0,54.8,48.1,37.1,95,68,37,29.72,29.51,13,2,27,0.00
2013-5-5,60.0,55.2,52.2,52.8,49.9,48.6,90,82,73,29.74,29.54,17,3,20,0.00
2013-5-6,68.0,58.7,55.2,56.7,52.0,49.9,92,79,56,29.90,29.74,9,1,19,0.00
2013-5-7,65.5,57.6,52.5,56.6,53.3,51.1,96,86,70,29.98,29.89,8,2,12,0.00
2013-5-8,60.8,52.6,50.6,53.5,50.5,48.4,97,93,75,30.07,29.97,5,1,9,0.00
2013-5-9,61.7,53.0,49.5,53.0,49.4,47.6,95,88,72,30.10,30.03,12,1,12,0.00
2013-5-10,60.3,52.7,49.1,54.1,50.0,47.8,96,91,78,30.12,30.04,7,1,10,0.00
2013-5-11,74.0,55.3,49.1,58.1,51.1,48.3,98,87,52,30.08,29.99,5,1,11,0.00
2013-5-12,73.6,59.6,51.6,61.4,53.3,49.9,99,81,53,30.08,29.97,5,0,6,0.00
2013-5-13,73.0,59.1,50.7,59.8,52.8,48.7,97,81,62,30.02,29.89,4,0,9,0.00
2013-5-14,66.9,58.0,50.4,54.2,50.6,47.0,94,77,62,29.92,29.85,7,1,11,0.00
2013-5-15,66.7,57.1,50.4,58.8,49.1,46.2,93,75,60,29.97,29.92,4,0,6,0.00
2013-5-16,63.2,56.9,53.1,59.2,51.5,47.2,94,82,72,29.97,29.89,6,1,10,0.00
2013-5-17,64.0,54.9,50.0,53.0,47.6,44.8,90,77,60,30.01,29.91,7,1,12,0.00
2013-5-18,75.5,58.0,49.6,54.4,49.1,44.5,90,74,46,30.07,30.00,6,0,10,0.00
2013-5-19,78.1,63.4,54.2,54.7,48.6,40.6,82,60,31,30.06,29.91,4,0,13,0.00
2013-5-20,86.2,65.5,53.9,56.8,49.1,42.6,91,58,23,29.94,29.85,7,1,10,0.00
2013-5-21,72.2,57.9,52.1,53.7,47.4,37.0,89,70,46,29.93,29.84,8,1,9,0.00
2013-5-22,66.7,54.3,46.8,44.9,36.2,29.6,70,51,27,29.95,29.83,5,1,11,0.00
2013-5-23,64.0,54.3,47.5,45.6,42.3,39.1,75,65,45,29.93,29.85,8,1,9,0.00
2013-5-24,65.6,55.4,49.2,51.7,45.7,43.4,91,71,48,29.94,29.87,8,1,9,0.00
2013-5-25,67.8,54.6,48.2,55.1,47.1,44.5,97,76,55,29.97,29.89,6,0,9,0.00
2013-5-26,63.5,55.2,51.1,55.6,51.1,48.1,95,86,73,30.06,29.97,5,1,12,0.00
2013-5-27,61.8,54.3,51.4,57.0,51.5,48.3,98,90,80,30.05,29.93,6,1,13,0.14
2013-5-28,70.4,58.2,53.2,61.0,55.3,49.6,99,91,68,29.94,29.85,5,1,9,0.02
2013-5-29,70.2,58.5,54.4,57.6,51.6,47.9,92,78,62,29.91,29.84,5,1,7,0.00
2013-5-30,76.9,59.4,51.6,54.7,49.9,47.8,91,72,45,29.92,29.86,8,1,11,0.00
2013-5-31,82.8,62.9,52.4,55.0,50.2,46.1,87,67,31,29.95,29.84,4,0,8,0.00
2013-6-1,83.1,64.8,55.1,58.0,51.2,45.7,87,64,30,29.87,29.70,6,0,6,0.00
2013-6-2,68.9,58.3,50.5,53.8,51.3,48.8,96,79,54,29.72,29.60,10,1,13,0.00
2013-6-3,59.1,52.9,50.1,52.9,50.5,49.3,97,92,78,29.80,29.64,14,5,20,0.00
2013-6-4,59.3,53.4,52.0,53.8,51.1,50.1,96,92,82,29.90,29.79,9,3,15,0.00
2013-6-5,59.8,52.9,50.1,53.4,50.5,49.2,97,91,79,29.94,29.86,9,2,16,0.00
2013-6-6,60.1,52.2,49.6,55.4,50.7,49.1,99,95,79,29.90,29.79,7,2,12,0.00
2013-6-7,79.3,59.4,50.5,61.1,53.9,50.0,99,84,52,29.83,29.66,6,2,10,0.00
2013-6-8,73.0,59.4,53.7,57.9,53.4,52.0,98,81,58,29.74,29.66,16,4,21,0.00
2013-6-9,59.3,54.9,53.9,56.8,54.0,53.3,99,97,88,29.82,29.73,15,6,25,0.02
2013-6-10,61.5,55.1,53.1,55.6,53.3,51.2,98,94,80,29.89,29.72,12,3,23,0.03
2013-6-11,66.5,57.6,53.3,57.2,53.2,48.4,96,86,64,29.93,29.83,5,1,9,0.00
2013-6-12,80.5,60.7,51.7,55.9,50.5,46.1,89,71,37,29.92,29.85,4,0,9,0.00
2013-6-13,76.9,61.3,52.1,54.7,49.2,45.9,83,66,37,30.03,29.92,6,0,8,0.00
2013-6-14,78.2,61.3,51.2,55.5,50.9,47.7,90,70,39,29.93,29.76,5,1,7,0.00
2013-6-15,57.1,51.3,48.4,52.1,49.2,47.3,97,93,81,29.93,29.76,8,2,12,0.00
2013-6-16,78.4,59.2,50.6,57.6,51.5,48.4,96,78,47,30.01,29.92,4,0,9,0.01
2013-6-17,75.5,60.4,53.4,59.5,52.5,48.8,92,76,54,30.01,29.95,10,1,11,0.00
2013-6-18,67.5,58.3,53.1,57.6,51.6,46.2,94,79,62,29.96,29.91,10,1,13,0.00
2013-6-19,72.8,60.7,53.3,53.4,47.9,44.2,86,64,48,29.99,29.93,5,1,16,0.00
2013-6-20,77.3,62.0,54.2,53.7,48.9,46.2,79,64,41,29.95,29.87,6,0,11,0.00
2013-6-21,75.8,64.3,52.4,59.8,51.4,48.6,89,65,41,29.91,29.84,3,1,11,0.00
2013-6-22,79.3,62.3,53.5,57.6,51.4,49.0,89,69,41,29.87,29.77,5,0,7,0.00
2013-6-23,63.1,57.1,54.8,57.6,54.6,52.8,98,92,71,29.81,29.76,11,1,13,0.10
2013-6-24,57.1,55.0,53.2,56.8,54.6,52.9,99,99,98,29.85,29.73,6,2,15,0.05
2013-6-25,62.1,59.0,56.4,61.5,58.7,56.1,99,99,98,29.93,29.83,18,3,24,0.39
2013-6-26,73.0,63.7,58.7,66.6,61.0,58.4,100,92,73,30.00,29.92,7,1,9,0.04
2013-6-27,86.4,68.4,58.7,66.5,60.7,57.0,98,79,46,30.02,29.95,4,0,5,0.00
2013-6-28,85.7,70.7,60.3,65.9,59.6,53.2,90,70,46,29.97,29.84,4,0,8,0.00
2013-6-29,88.8,73.1,64.1,65.4,57.4,52.9,75,59,40,29.86,29.74,4,0,9,0.00
2013-6-30,85.2,67.1,58.6,63.4,57.4,55.1,90,72,48,29.78,29.70,6,0,8,0.00
2013-7-1,82.7,64.2,57.4,62.8,56.8,54.7,94,78,47,29.78,29.74,6,0,9,0.00
2013-7-2,74.0,62.0,56.1,61.5,56.5,54.6,97,83,64,29.86,29.76,13,3,19,0.00
2013-7-3,81.1,62.0,55.8,63.6,57.2,55.0,99,86,50,29.86,29.70,9,2,15,0.00
2013-7-4,75.4,66.2,61.3,59.8,57.2,50.2,85,74,42,29.73,29.62,7,1,19,0.00
2013-7-5,64.1,59.1,52.6,57.4,52.9,50.6,93,80,66,29.71,29.65,10,2,14,0.00
2013-7-6,59.2,53.5,51.7,54.2,51.4,50.4,97,93,82,29.76,29.69,17,5,26,0.00
2013-7-7,62.1,54.8,52.4,55.9,52.7,51.2,97,93,78,29.81,29.73,9,3,18,0.00
2013-7-8,62.4,55.2,52.7,56.1,53.1,51.6,97,93,80,29.92,29.80,13,3,14,0.00
2013-7-9,79.3,59.1,51.6,62.6,54.0,50.8,98,86,48,29.97,29.87,7,0,11,0.00
2013-7-10,64.2,54.7,51.8,59.0,52.6,51.0,98,93,76,29.92,29.85,10,2,13,0.00
2013-7-11,59.0,52.5,50.5,55.5,51.4,50.0,99,96,85,29.89,29.81,9,3,16,0.00
2013-7-12,59.2,53.9,51.2,55.0,52.0,50.4,98,93,84,29.90,29.82,11,3,18,0.00
2013-7-13,61.3,54.9,51.7,55.3,52.2,50.7,97,91,76,29.91,29.84,7,3,12,0.01
2013-7-14,59.3,53.6,51.4,55.1,52.0,50.6,98,94,84,29.94,29.84,8,3,12,0.01
2013-7-15,58.1,52.4,50.0,55.2,51.5,49.5,99,97,86,29.87,29.79,7,2,15,0.01
2013-7-16,58.4,54.6,51.8,57.2,53.7,51.0,98,97,91,29.97,29.81,7,1,13,0.02
2013-7-17,66.4,57.5,53.1,60.2,54.8,52.3,98,91,76,30.04,29.97,10,1,11,0.01
2013-7-18,62.7,54.5,52.2,57.5,53.0,51.6,99,95,78,30.00,29.88,8,2,11,0.00
2013-7-19,64.2,54.6,51.8,57.9,53.0,51.1,99,95,78,29.90,29.76,8,2,14,0.01
2013-7-20,59.8,52.8,51.0,55.0,51.7,50.6,99,96,83,29.80,29.68,13,3,23,0.00
2013-7-21,59.0,52.8,51.3,55.5,51.8,50.8,99,96,84,29.83,29.72,14,4,18,0.00
2013-7-22,63.0,55.5,52.2,59.3,54.5,51.7,99,97,84,29.91,29.82,8,3,17,0.00
2013-7-23,67.7,59.6,54.5,61.7,56.4,54.0,100,89,78,29.95,29.88,6,2,15,0.00
2013-7-24,69.0,60.0,53.9,59.7,56.3,52.9,99,88,62,29.93,29.85,6,1,11,0.00
2013-7-25,63.8,55.3,51.7,56.8,53.1,51.2,98,93,78,29.97,29.87,7,2,14,0.00
2013-7-26,65.1,54.7,52.1,58.8,53.5,51.5,99,96,78,30.04,29.95,8,2,14,0.00
2013-7-27,60.3,54.3,52.0,56.6,53.4,51.7,99,97,87,29.98,29.81,11,2,13,0.00
2013-7-28,56.9,53.5,52.0,54.6,52.7,51.2,99,97,89,29.83,29.76,11,4,15,0.01
2013-7-29,58.8,54.3,52.4,56.2,53.1,51.7,98,95,88,29.96,29.78,14,4,25,0.00
2013-7-30,61.8,54.6,51.4,56.2,53.3,50.8,99,95,81,30.05,29.95,14,3,16,0.00
2013-7-31,64.1,55.7,51.3,58.7,53.2,50.8,100,92,75,30.04,29.94,8,2,14,0.00
2013-8-1,66.1,58.8,53.4,62.8,54.5,51.4,96,86,76,30.00,29.90,8,1,11,0.01
2013-8-2,64.2,56.5,51.6,55.7,53.3,50.3,97,89,74,29.92,29.83,7,1,12,0.00
2013-8-3,60.2,52.8,50.8,55.6,51.8,50.2,99,96,83,29.93,29.85,9,3,14,0.00
2013-8-4,58.6,53.0,51.1,54.7,52.0,50.6,100,97,84,29.95,29.89,7,2,13,0.01
2013-8-5,60.6,54.3,51.2,55.3,52.8,50.4,99,95,81,29.98,29.87,6,2,13,0.01
2013-8-6,62.2,54.8,51.6,56.0,53.2,51.0,99,95,78,29.98,29.92,7,2,15,0.00
2013-8-7,60.9,56.9,54.8,59.5,55.8,54.0,98,96,89,30.05,29.98,6,1,14,0.06
2013-8-8,67.4,58.5,53.2,60.2,56.1,52.1,99,92,71,29.98,29.88,8,1,10,0.04
2013-8-9,64.5,56.0,52.6,57.7,54.2,51.8,99,94,78,29.94,29.86,8,2,13,0.01
2013-8-10,65.6,58.2,55.0,58.5,55.7,53.9,98,92,76,30.00,29.93,6,1,12,0.00
2013-8-11,62.8,55.9,53.1,57.9,54.5,52.7,99,95,82,29.97,29.89,6,1,11,0.01
2013-8-12,62.6,55.2,52.9,58.6,54.0,52.4,99,96,83,29.95,29.88,8,2,11,0.00
2013-8-13,79.9,62.1,53.5,61.7,55.9,52.9,100,82,50,29.94,29.85,6,1,11,0.01
2013-8-14,72.6,62.5,54.4,61.6,56.5,52.2,93,81,64,29.92,29.84,5,0,9,0.00
2013-8-15,74.7,63.3,56.9,66.3,60.3,56.1,98,90,73,29.91,29.85,5,1,12,0.01
2013-8-16,78.5,64.4,57.2,63.0,58.9,53.2,97,84,45,29.93,29.88,5,0,9,0.00
2013-8-17,82.3,63.7,57.1,68.0,57.6,55.0,94,82,53,29.92,29.80,5,0,9,0.00
2013-8-18,85.4,65.4,55.0,63.8,58.5,54.0,98,81,47,29.83,29.72,4,1,8,0.00
2013-8-19,69.1,63.2,57.2,59.4,57.3,55.0,98,81,69,29.84,29.73,11,3,14,0.00
2013-8-20,62.1,57.7,56.0,58.6,56.7,55.2,99,97,87,29.85,29.77,11,3,14,0.01
2013-8-21,66.2,58.4,55.8,58.3,55.5,54.5,96,90,73,29.90,29.81,8,3,15,0.00
2013-8-22,66.6,58.2,55.6,57.4,54.7,53.5,96,89,71,29.92,29.84,6,2,10,0.00
2013-8-23,67.8,58.8,54.6,58.8,55.5,53.2,96,89,73,29.88,29.75,8,1,11,0.00
2013-8-24,73.5,60.1,55.4,61.1,56.4,53.4,96,88,65,29.83,29.77,8,1,11,0.00
2013-8-25,71.3,62.7,58.9,64.6,60.3,58.0,98,92,78,29.89,29.83,7,1,14,0.00
2013-8-26,76.4,63.0,57.9,62.2,58.2,54.9,97,85,58,29.95,29.84,3,1,8,0.01
2013-8-27,74.8,63.1,56.3,64.9,57.3,54.5,96,82,57,29.85,29.77,4,0,8,0.00
2013-8-28,72.5,62.4,57.3,65.0,59.2,56.2,98,89,75,29.88,29.80,9,1,9,0.01
2013-8-29,74.9,63.9,58.8,64.5,60.7,58.0,98,90,70,30.00,29.88,4,1,11,0.00
2013-8-30,89.3,68.9,59.6,69.0,61.7,57.0,99,80,44,29.98,29.85,7,1,9,0.00
2013-8-31,74.8,63.8,57.9,62.7,58.2,55.8,95,83,62,29.91,29.83,5,0,9,0.00
2013-9-1,73.0,62.8,57.8,63.0,57.8,54.6,98,84,65,29.89,29.83,5,1,8,0.00
2013-9-2,72.2,65.1,61.4,64.5,60.9,57.7,96,86,75,29.90,29.83,9,1,11,0.00
2013-9-3,72.6,64.2,58.1,62.8,58.4,54.2,98,82,59,29.94,29.87,5,0,8,0.00
2013-9-4,79.7,64.6,59.0,63.2,58.4,56.0,92,81,56,29.98,29.88,7,0,9,0.00
2013-9-5,81.4,65.3,58.0,61.0,57.4,55.5,94,77,47,29.95,29.89,5,0,10,0.00
2013-9-6,91.4,69.5,58.7,60.3,55.0,44.2,93,65,20,29.93,29.77,4,0,6,0.00
2013-9-7,92.9,72.8,61.3,60.8,53.6,49.7,80,52,29,29.81,29.74,6,1,8,0.00
2013-9-8,80.0,63.4,56.6,61.8,56.4,54.3,95,80,44,29.81,29.70,5,1,11,0.00
2013-9-9,79.4,62.0,55.7,61.4,56.1,53.7,95,83,50,29.75,29.65,9,1,13,0.00
2013-9-10,60.6,58.4,56.9,59.4,57.5,56.3,99,97,94,29.84,29.67,15,4,24,0.02
2013-9-11,65.6,61.1,59.3,59.8,58.6,57.9,97,91,80,29.95,29.84,5,1,16,0.00
2013-9-12,69.1,62.0,56.9,64.2,60.0,56.1,99,93,79,29.93,29.83,4,1,10,0.04
2013-9-13,75.7,60.1,55.4,61.5,56.6,54.7,99,89,61,29.85,29.70,5,1,9,0.00
2013-9-14,75.5,59.2,54.1,62.1,55.7,53.3,99,89,61,29.76,29.68,11,1,11,0.01
2013-9-15,71.0,60.2,54.9,59.5,56.0,52.9,96,87,65,29.81,29.72,5,1,9,0.00
2013-9-16,76.2,62.8,56.9,62.5,58.3,54.5,99,86,55,29.84,29.73,7,0,7,0.01
2013-9-17,76.5,63.3,57.3,59.4,55.1,53.5,90,76,50,29.82,29.76,7,1,8,0.00
2013-9-18,80.3,65.4,58.2,59.1,52.8,45.9,88,67,36,29.86,29.76,5,0,10,0.00
2013-9-19,84.4,65.2,56.2,58.6,50.1,26.3,85,61,16,29.80,29.68,4,0,8,0.00
2013-9-20,69.8,59.1,54.2,61.3,55.4,49.6,98,88,73,29.79,29.71,8,1,21,0.00
2013-9-21,62.0,59.7,57.0,60.5,58.4,54.6,99,96,90,29.84,29.74,15,5,34,0.72
2013-9-22,68.5,60.2,54.6,58.2,54.8,52.5,97,83,68,29.94,29.83,4,0,9,0.00
2013-9-23,77.3,64.7,58.3,63.8,56.2,52.1,95,75,56,29.97,29.88,5,0,7,0.00
2013-9-24,74.8,63.7,59.3,59.6,55.6,46.2,91,76,57,29.93,29.84,8,1,14,0.00
2013-9-25,71.1,60.7,56.8,50.5,46.8,43.8,72,61,44,29.87,29.75,6,2,17,0.00
2013-9-26,73.0,61.0,54.2,49.5,42.8,37.8,62,52,33,29.92,29.77,6,1,9,0.00
2013-9-27,76.4,65.1,59.3,52.8,38.7,31.8,64,38,27,30.03,29.92,5,0,8,0.00
2013-9-28,76.9,63.0,57.7,58.0,48.3,35.8,88,61,29,30.02,29.94,5,1,9,0.00
2013-9-29,71.4,61.4,57.2,62.9,57.6,54.6,97,88,71,30.05,29.99,9,1,9,0.00
2013-9-30,62.0,60.8,58.9,61.7,60.1,54.2,99,98,81,30.01,29.92,7,1,13,0.03
2013-10-1,69.4,59.8,54.2,59.6,50.3,46.7,94,71,53,29.96,29.86,8,1,11,0.00
2013-10-2,73.1,61.6,56.8,56.3,50.9,42.4,93,69,49,29.95,29.87,4,0,7,0.00
2013-10-3,70.2,61.6,54.9,46.5,39.6,31.6,62,46,27,30.02,29.90,6,1,13,0.00
2013-10-4,77.6,68.1,62.2,38.0,33.7,26.3,36,29,17,30.02,29.90,10,3,19,0.00
2013-10-5,81.4,71.3,65.4,43.4,31.4,26.7,35,23,14,30.12,30.02,5,1,7,0.00
2013-10-6,80.3,67.9,60.7,40.8,33.5,29.4,38,28,21,30.05,29.93,10,2,11,0.00
2013-10-7,78.3,67.6,58.6,51.0,39.4,33.7,67,37,26,29.92,29.80,5,0,7,0.00
2013-10-8,71.6,57.9,53.0,56.6,49.5,45.3,93,74,46,29.84,29.66,5,1,9,0.00
2013-10-9,66.2,57.5,49.7,50.9,47.0,40.9,91,70,44,29.70,29.57,6,1,9,0.00
2013-10-10,61.3,55.5,50.2,52.0,47.1,38.9,94,75,45,29.94,29.69,7,2,11,0.00
2013-10-11,60.2,51.8,49.3,51.9,48.9,46.9,96,90,72,30.03,29.92,8,2,11,0.00
2013-10-12,58.7,52.2,48.7,52.3,48.7,46.8,98,88,68,29.95,29.84,9,1,13,0.01
2013-10-13,70.9,58.7,51.9,57.7,48.7,42.7,98,71,38,30.00,29.86,4,0,7,0.00
2013-10-14,74.0,62.0,54.2,62.3,44.7,38.1,96,56,30,30.05,29.94,5,0,8,0.00
2013-10-15,76.8,64.9,57.8,51.8,39.8,35.7,61,41,23,29.98,29.89,7,1,8,0.00
2013-10-16,79.2,65.9,58.9,50.7,39.3,33.7,63,39,23,30.02,29.92,5,1,6,0.00
2013-10-17,79.1,66.3,58.4,46.1,38.9,31.4,59,37,23,30.01,29.89,4,0,7,0.00
2013-10-18,73.9,60.1,51.3,57.5,48.7,43.2,96,67,44,29.99,29.91,4,0,5,0.00
2013-10-19,77.3,60.9,53.2,55.0,48.1,43.9,84,65,35,30.01,29.93,5,0,6,0.00
2013-10-20,68.5,55.1,48.7,56.9,49.6,46.8,98,83,57,29.96,29.85,4,0,7,0.00
2013-10-21,64.9,52.3,48.2,55.7,49.0,46.8,98,89,63,29.95,29.86,4,0,5,0.00
2013-10-22,67.8,52.9,48.0,56.3,49.8,46.6,98,90,61,29.96,29.86,6,0,6,0.01
2013-10-23,62.4,50.6,47.2,54.2,48.8,46.3,98,94,68,29.92,29.84,7,1,13,0.01
2013-10-24,59.1,50.4,47.3,52.3,48.5,46.8,99,94,76,30.04,29.92,4,1,11,0.00
2013-10-25,67.6,55.6,49.5,56.9,50.3,47.4,98,83,61,30.11,30.02,6,0,7,0.00
2013-10-26,72.4,58.4,50.9,55.9,50.3,48.0,93,77,46,30.08,29.95,3,0,5,0.00
2013-10-27,54.6,51.1,47.7,51.8,48.4,46.4,98,90,83,29.97,29.60,9,2,20,0.00
2013-10-28,63.1,53.9,50.5,57.3,47.3,43.9,96,79,59,29.78,29.61,7,1,17,0.00
2013-10-29,58.4,53.6,50.7,50.8,49.3,46.3,92,85,69,29.99,29.78,7,1,12,0.00
2013-10-30,65.4,54.7,49.6,53.4,48.3,45.2,96,80,61,30.09,29.99,5,1,7,0.00
2013-10-31,69.9,57.6,50.5,52.5,46.6,42.4,92,68,47,30.11,30.00,5,0,6,0.00
2013-11-1,67.6,60.1,52.4,51.6,47.1,45.1,82,63,49,30.08,29.95,7,1,10,0.00
2013-11-2,68.0,60.6,51.2,57.6,49.2,44.9,94,67,52,29.96,29.84,6,0,7,0.00
2013-11-3,67.3,55.6,49.8,54.7,41.5,34.2,84,61,33,29.99,29.86,2,0,5,0.00
2013-11-4,68.2,56.5,48.8,45.3,35.9,31.1,79,48,28,30.00,29.85,5,0,9,0.00
2013-11-5,72.5,61.4,55.8,46.1,36.9,32.0,55,41,28,30.15,30.00,4,0,7,0.00
2013-11-6,66.9,60.2,54.5,46.6,40.5,37.9,56,48,42,30.19,30.09,7,2,12,0.00
2013-11-7,72.5,62.3,54.6,50.5,42.9,38.7,86,50,35,30.10,30.00,4,1,6,0.00
2013-11-8,70.5,57.3,50.8,60.2,51.0,45.4,98,81,55,30.01,29.89,5,0,7,0.00
2013-11-9,68.0,53.5,48.3,53.2,48.0,46.1,95,83,50,29.96,29.91,6,2,12,0.00
2013-11-10,60.4,54.0,51.2,52.6,50.2,48.7,94,87,72,30.06,29.97,7,2,16,0.01
2013-11-11,65.9,54.7,49.9,57.4,49.5,45.2,96,84,58,30.11,30.02,5,1,8,0.00
2013-11-12,66.9,60.0,56.0,56.6,50.1,46.4,87,70,58,30.20,30.09,4,0,5,0.00
2013-11-13,72.6,59.3,52.8,59.3,53.0,50.5,98,80,53,30.18,30.03,5,0,6,0.00
2013-11-14,62.3,53.6,50.2,54.9,49.9,34.8,98,88,38,30.05,29.80,7,0,13,0.00
2013-11-15,64.6,55.4,50.4,49.6,43.6,38.6,90,65,44,29.82,29.66,4,1,9,0.00
2013-11-16,62.3,52.8,47.1,57.4,47.1,43.1,95,82,56,29.86,29.70,6,1,8,0.00
2013-11-17,60.0,51.8,47.6,53.9,47.6,43.9,97,86,67,30.02,29.86,7,1,10,0.00
2013-11-18,56.9,51.0,48.1,55.9,48.2,45.9,98,90,79,30.09,30.02,6,1,11,0.01
2013-11-19,56.3,53.5,50.8,55.7,51.5,48.8,98,93,88,30.03,29.87,14,4,21,0.49
2013-11-20,62.4,55.2,50.9,62.1,54.9,50.1,99,99,96,29.86,29.78,10,4,18,0.67
2013-11-21,60.3,53.5,50.0,60.0,43.6,26.4,99,75,33,29.92,29.84,11,2,18,0.01
2013-11-22,67.1,58.6,54.4,29.2,24.7,16.6,35,28,17,29.95,29.84,10,5,19,0.00
2013-11-23,64.7,55.7,51.0,51.2,34.3,22.4,95,48,24,30.03,29.90,9,2,15,0.00
2013-11-24,61.7,52.9,46.1,60.0,46.5,39.9,99,81,50,30.18,30.03,4,0,6,0.01
2013-11-25,58.0,51.0,46.2,50.1,44.3,41.9,91,78,65,30.26,30.18,5,2,10,0.00
2013-11-26,57.7,52.6,49.1,47.4,43.4,41.0,84,71,58,30.20,29.97,7,2,9,0.00
2013-11-27,61.0,53.6,49.6,52.0,44.8,42.6,84,72,60,29.97,29.78,7,2,11,0.00
2013-11-28,71.5,57.5,53.0,59.3,44.3,41.2,88,62,36,30.00,29.81,4,1,6,0.00
2013-11-29,67.4,56.2,51.3,52.0,46.7,41.5,87,71,46,30.14,30.00,6,1,7,0.00
2013-11-30,67.6,56.0,50.9,61.5,48.3,44.7,97,76,48,30.21,30.13,4,0,6,0.00
2013-12-1,71.0,57.7,51.6,61.5,48.2,45.9,89,72,50,30.27,30.15,3,0,5,0.00
2013-12-2,64.0,55.5,49.2,54.6,49.1,46.0,95,79,66,30.17,29.89,5,1,7,0.00
2013-12-3,55.8,50.9,44.9,53.2,40.6,27.4,92,68,50,29.89,29.78,7,2,18,0.00
2013-12-4,51.9,44.7,40.1,35.2,25.9,21.5,70,48,33,30.02,29.87,5,0,8,0.00
2013-12-5,50.1,42.3,37.9,34.6,26.3,17.3,73,54,31,30.09,30.01,6,1,10,0.00
2013-12-6,49.5,43.7,38.7,48.1,37.1,30.1,96,78,57,30.12,29.83,23,2,23,0.25
2013-12-7,48.8,43.0,37.5,45.2,32.9,26.3,95,68,46,30.18,29.85,10,1,13,0.00
2013-12-8,44.3,38.2,33.4,37.7,27.7,22.3,91,67,46,30.25,30.17,7,2,12,0.00
2013-12-9,48.8,39.9,35.6,33.5,24.0,17.2,78,54,30,30.35,30.25,9,1,10,0.00
2013-12-10,49.9,41.2,36.3,33.7,29.9,26.9,84,65,44,30.34,30.15,9,3,11,0.00
2013-12-11,52.1,44.5,39.2,40.1,32.5,28.7,80,63,47,30.18,30.11,7,3,10,0.00
2013-12-12,54.1,47.5,43.2,40.3,35.0,33.2,77,62,48,30.19,30.10,6,3,11,0.00
2013-12-13,58.4,48.0,42.9,49.4,39.9,33.0,96,75,42,30.26,30.16,3,0,6,0.00
2013-12-14,56.9,49.7,45.3,44.0,40.7,35.9,88,72,53,30.32,30.24,7,1,9,0.00
2013-12-15,56.1,49.9,46.3,41.1,38.1,36.5,72,64,52,30.29,30.17,10,5,13,0.00
2013-12-16,62.8,54.0,48.9,41.3,38.1,34.6,72,56,41,30.18,30.05,8,4,13,0.00
2013-12-17,60.4,54.7,51.0,44.2,39.4,36.0,68,57,44,30.10,29.96,8,4,14,0.00
2013-12-18,59.0,53.3,48.8,47.6,41.8,35.7,92,66,49,29.96,29.69,5,2,11,0.00
2013-12-19,59.6,50.6,45.4,43.7,36.5,20.4,81,61,32,29.87,29.66,5,1,12,0.00
2013-12-20,67.4,53.2,46.0,54.1,29.0,15.1,73,41,26,29.94,29.86,4,0,5,0.00
2013-12-21,62.8,54.1,47.6,54.6,47.0,38.9,96,77,64,30.01,29.90,3,0,4,0.00
2013-12-22,59.2,54.6,49.5,48.1,41.7,39.0,88,63,47,30.21,30.01,7,1,8,0.00
2013-12-23,58.1,53.7,48.1,45.5,40.4,38.0,71,61,54,30.32,30.21,9,2,14,0.00
2013-12-24,68.5,57.6,49.7,52.7,42.5,40.3,72,58,42,30.27,30.14,5,1,9,0.00
2013-12-25,59.6,54.7,46.8,44.6,41.5,39.1,80,62,51,30.22,30.13,8,3,10,0.00
2013-12-26,60.7,55.8,50.1,42.6,38.6,33.4,67,53,41,30.18,30.10,7,3,9,0.00
2013-12-27,58.4,53.8,50.4,42.1,39.3,34.3,68,58,45,30.15,30.06,11,3,14,0.00
2013-12-28,66.1,55.6,44.7,41.7,35.6,27.9,74,49,28,30.08,29.96,9,1,10,0.00
2013-12-29,63.3,56.7,51.4,36.2,29.0,22.7,56,35,23,30.10,30.02,11,3,14,0.00
2013-12-30,64.9,52.0,48.7,50.7,39.1,35.8,84,62,46,30.18,30.09,6,3,11,0.00
2013-12-31,57.7,50.8,46.3,48.2,40.3,34.5,92,69,43,30.20,30.09,4,1,5,0.00
2014-1-1,64.0,53.6,46.6,51.8,39.0,30.7,82,59,34,30.14,30.05,4,1,7,0.00
2014-1-2,62.0,55.2,50.2,42.2,36.5,34.6,60,50,41,30.10,29.98,7,3,11,0.00